TimeCDT,TemperatureF,Dew PointF,Humidity,Sea Level PressureIn,VisibilityMPH,Wind Direction,Wind SpeedMPH,Gust SpeedMPH,PrecipitationIn,Events,Conditions,WindDirDegrees,DateUTC
12:53 AM,30.9,17.1,57,30.32,10.0,South,6.9,-,N/A,,Clear,180,2013-04-04 05:53:00
1:53 AM,32.0,21.0,64,30.30,10.0,South,6.9,-,N/A,,Clear,190,2013-04-04 06:53:00
2:53 AM,30.9,19.9,64,30.27,10.0,South,5.8,-,N/A,,Clear,190,2013-04-04 07:53:00
3:53 AM,28.9,18.0,64,30.25,10.0,SSW,4.6,-,N/A,,Clear,200,2013-04-04 08:53:00
4:53 AM,28.9,17.1,61,30.25,10.0,SSW,6.9,-,N/A,,Clear,200,2013-04-04 09:53:00
5:53 AM,30.9,18.0,59,30.23,10.0,SSW,10.4,-,N/A,,Clear,210,2013-04-04 10:53:00
6:53 AM,32.0,18.0,56,30.23,10.0,SW,6.9,-,N/A,,Clear,230,2013-04-04 11:53:00
7:53 AM,36.0,19.9,52,30.22,10.0,SSW,10.4,-,N/A,,Clear,210,2013-04-04 12:53:00
8:53 AM,42.1,21.0,43,30.19,10.0,SSW,17.3,21.9,N/A,,Clear,210,2013-04-04 13:53:00
9:53 AM,46.9,21.0,36,30.16,10.0,SW,16.1,20.7,N/A,,Clear,220,2013-04-04 14:53:00
10:53 AM,50.0,21.0,32,30.14,10.0,WSW,10.4,25.3,N/A,,Clear,240,2013-04-04 15:53:00
11:53 AM,52.0,21.9,31,30.11,10.0,SW,17.3,23.0,N/A,,Clear,230,2013-04-04 16:53:00
12:53 PM,54.0,24.1,31,30.09,10.0,West,11.5,20.7,N/A,,Clear,260,2013-04-04 17:53:00
1:53 PM,55.9,25.0,30,30.05,10.0,SW,13.8,21.9,N/A,,Clear,230,2013-04-04 18:53:00
2:53 PM,57.9,27.0,31,30.01,10.0,WSW,10.4,19.6,N/A,,Clear,240,2013-04-04 19:53:00
3:53 PM,59.0,28.0,31,29.98,10.0,SW,15.0,-,N/A,,Clear,230,2013-04-04 20:53:00
4:53 PM,57.9,28.9,33,29.97,10.0,West,12.7,23.0,N/A,,Scattered Clouds,260,2013-04-04 21:53:00
5:53 PM,57.0,30.0,36,29.98,10.0,WSW,15.0,20.7,N/A,,Overcast,250,2013-04-04 22:53:00
6:53 PM,55.9,30.9,39,29.98,10.0,West,6.9,-,N/A,,Partly Cloudy,260,2013-04-04 23:53:00
7:53 PM,52.0,32.0,47,29.98,10.0,SW,3.5,-,N/A,,Partly Cloudy,230,2013-04-05 00:53:00
8:53 PM,52.0,33.1,49,29.99,10.0,NW,6.9,-,N/A,,Partly Cloudy,320,2013-04-05 01:53:00
9:53 PM,48.9,32.0,52,30.01,10.0,NNW,5.8,-,N/A,,Clear,330,2013-04-05 02:53:00
10:53 PM,46.9,30.0,52,30.02,10.0,NNW,6.9,-,N/A,,Clear,330,2013-04-05 03:53:00
11:53 PM,46.0,27.0,47,30.02,10.0,NNW,10.4,-,N/A,,Clear,330,2013-04-05 04:53:00